createdAt,value
2023-04-08T00:00:36.228Z,15.1
2023-04-08T00:01:38.296Z,15.1
2023-04-08T00:02:40.399Z,15.1
2023-04-08T00:03:43.060Z,15.1
2023-04-08T00:04:45.513Z,15.1
2023-04-08T00:05:47.318Z,15.1
2023-04-08T00:06:49.669Z,15.1
2023-04-08T00:07:51.630Z,15.1
2023-04-08T00:08:53.463Z,15.1
2023-04-08T00:09:55.322Z,15.1
2023-04-08T00:10:57.130Z,15.1
2023-04-08T00:11:58.922Z,15.1
2023-04-08T00:13:00.880Z,15.1
2023-04-08T00:14:02.726Z,15.1
2023-04-08T00:15:04.680Z,15.1
2023-04-08T00:16:06.539Z,15.1
2023-04-08T00:17:08.443Z,15.1
2023-04-08T00:18:10.686Z,15.1
2023-04-08T00:19:12.714Z,15.1
2023-04-08T00:20:14.774Z,15.1
2023-04-08T00:21:16.594Z,15.1
2023-04-08T00:22:18.349Z,15.1
2023-04-08T00:23:20.405Z,15.2
2023-04-08T00:24:22.247Z,15.2
2023-04-08T00:25:26.005Z,15.2
2023-04-08T00:26:28.004Z,15.2
2023-04-08T00:27:29.872Z,15.2
2023-04-08T00:28:31.704Z,15.2
2023-04-08T00:29:33.661Z,15.2
2023-04-08T00:30:35.632Z,15.2
2023-04-08T00:31:37.563Z,15.2
2023-04-08T00:32:39.531Z,15.2
2023-04-08T00:33:41.668Z,15.2
2023-04-08T00:34:43.522Z,15.2
2023-04-08T00:35:45.521Z,15.2
2023-04-08T00:36:47.408Z,15.2
2023-04-08T00:37:49.168Z,15.2
2023-04-08T00:38:51.547Z,15.2
2023-04-08T00:39:53.599Z,15.2
2023-04-08T00:40:55.446Z,15.2
2023-04-08T00:41:57.284Z,15.2
2023-04-08T00:42:59.252Z,15.2
2023-04-08T00:44:01.195Z,15.2
2023-04-08T00:45:03.059Z,15.2
2023-04-08T00:46:05.019Z,15.2
2023-04-08T00:47:06.857Z,15.2
2023-04-08T00:48:08.803Z,15.2
2023-04-08T00:49:10.763Z,15.2
2023-04-08T00:50:12.612Z,15.2
2023-04-08T00:51:14.685Z,15.2
2023-04-08T00:52:16.502Z,15.2
2023-04-08T00:53:18.352Z,15.2
2023-04-08T00:54:20.216Z,15.2
2023-04-08T00:55:22.066Z,15.2
2023-04-08T00:56:23.911Z,15.2
2023-04-08T00:57:25.876Z,15.2
2023-04-08T00:58:27.677Z,15.2
2023-04-08T00:59:29.563Z,15.2
2023-04-08T01:00:31.420Z,15.2
2023-04-08T01:01:33.397Z,15.2
2023-04-08T01:02:35.962Z,15.2
2023-04-08T01:03:38.645Z,15.2
2023-04-08T01:04:40.773Z,15.2
2023-04-08T01:05:42.601Z,15.2
2023-04-08T01:06:44.593Z,15.2
2023-04-08T01:07:46.415Z,15.2
2023-04-08T01:08:48.720Z,15.2
2023-04-08T01:09:51.551Z,15.2
2023-04-08T01:10:53.401Z,15.2
2023-04-08T01:11:55.244Z,15.2
2023-04-08T01:12:57.085Z,15.2
2023-04-08T01:13:59.048Z,15.2
2023-04-08T01:15:00.993Z,15.2
2023-04-08T01:16:03.281Z,15.3
2023-04-08T01:17:05.214Z,15.2
2023-04-08T01:18:07.173Z,15.3
2023-04-08T01:19:09.119Z,15.3
2023-04-08T01:20:10.961Z,15.3
2023-04-08T01:21:12.821Z,15.2
2023-04-08T01:22:14.697Z,15.2
2023-04-08T01:23:16.511Z,15.2
2023-04-08T01:24:18.464Z,15.2
2023-04-08T01:25:20.340Z,15.2
2023-04-08T01:26:22.262Z,15.2
2023-04-08T01:27:24.116Z,15.3
2023-04-08T01:28:25.977Z,15.3
2023-04-08T01:29:27.721Z,15.3
2023-04-08T01:30:29.462Z,15.3
2023-04-08T01:31:31.440Z,15.3
2023-04-08T01:32:33.871Z,15.3
2023-04-08T01:33:35.832Z,15.3
2023-04-08T01:34:37.683Z,15.3
2023-04-08T01:35:39.453Z,15.3
2023-04-08T01:36:41.485Z,15.2
2023-04-08T01:37:43.478Z,15.3
2023-04-08T01:38:45.294Z,15.3
2023-04-08T01:39:47.142Z,15.3
2023-04-08T01:40:48.946Z,15.3
2023-04-08T01:41:50.709Z,15.3
2023-04-08T01:42:52.588Z,15.3
2023-04-08T01:43:54.434Z,15.3
2023-04-08T01:44:56.386Z,15.3
2023-04-08T01:45:58.094Z,15.3
2023-04-08T01:47:00.517Z,15.3
2023-04-08T01:48:02.677Z,15.3
2023-04-08T01:49:04.729Z,15.3
2023-04-08T01:50:06.686Z,15.3
2023-04-08T01:51:08.524Z,15.3
2023-04-08T01:52:10.378Z,15.3
2023-04-08T01:53:12.376Z,15.3
2023-04-08T01:54:14.368Z,15.2
2023-04-08T01:55:16.325Z,15.2
2023-04-08T01:56:18.194Z,15.3
2023-04-08T01:57:20.022Z,15.3
2023-04-08T01:58:21.873Z,15.3
2023-04-08T01:59:23.841Z,15.3
2023-04-08T02:00:25.598Z,15.3
2023-04-08T02:01:27.437Z,15.3
2023-04-08T02:02:29.785Z,15.3
2023-04-08T02:03:32.581Z,15.3
2023-04-08T02:04:35.162Z,15.3
2023-04-08T02:05:37.603Z,15.3
2023-04-08T02:06:39.451Z,15.3
2023-04-08T02:07:41.298Z,15.3
2023-04-08T02:08:43.276Z,15.3
2023-04-08T02:09:45.092Z,15.2
2023-04-08T02:10:47.047Z,15.2
2023-04-08T02:11:48.901Z,15.2
2023-04-08T02:12:50.860Z,15.2
2023-04-08T02:13:52.639Z,15.2
2023-04-08T02:14:54.452Z,15.2
2023-04-08T02:15:56.324Z,15.2
2023-04-08T02:16:58.147Z,15.2
2023-04-08T02:18:00.241Z,15.2
2023-04-08T02:19:02.156Z,15.2
2023-04-08T02:20:04.005Z,15.2
2023-04-08T02:21:05.752Z,15.2
2023-04-08T02:22:07.607Z,15.2
2023-04-08T02:23:09.555Z,15.2
2023-04-08T02:24:11.430Z,15.3
2023-04-08T02:25:13.257Z,15.2
2023-04-08T02:26:15.217Z,15.3
2023-04-08T02:27:17.059Z,15.2
2023-04-08T02:28:19.010Z,15.2
2023-04-08T02:29:20.940Z,15.2
2023-04-08T02:30:22.712Z,15.2
2023-04-08T02:31:24.609Z,15.2
2023-04-08T02:32:26.737Z,15.2
2023-04-08T02:33:28.667Z,15.2
2023-04-08T02:34:30.518Z,15.2
2023-04-08T02:35:32.489Z,15.2
2023-04-08T02:36:34.626Z,15.2
2023-04-08T02:37:36.588Z,15.2
2023-04-08T02:38:38.434Z,15.2
2023-04-08T02:39:40.414Z,15.2
2023-04-08T02:40:42.337Z,15.2
2023-04-08T02:41:44.202Z,15.2
2023-04-08T02:42:46.052Z,15.2
2023-04-08T02:43:47.794Z,15.2
2023-04-08T02:44:49.628Z,15.2
2023-04-08T02:45:51.689Z,15.2
2023-04-08T02:46:53.645Z,15.2
2023-04-08T02:47:55.531Z,15.2
2023-04-08T02:48:57.643Z,15.2
2023-04-08T02:49:59.595Z,15.2
2023-04-08T02:51:01.656Z,15.2
2023-04-08T02:52:03.714Z,15.2
2023-04-08T02:53:05.555Z,15.2
2023-04-08T02:54:07.407Z,15.2
2023-04-08T02:55:09.394Z,15.2
2023-04-08T02:56:11.211Z,15.2
2023-04-08T02:57:13.170Z,15.2
2023-04-08T02:58:15.125Z,15.2
2023-04-08T02:59:16.970Z,15.3
2023-04-08T03:00:18.832Z,15.2
2023-04-08T03:01:20.823Z,15.3
2023-04-08T03:02:23.326Z,15.2
2023-04-08T03:03:25.863Z,15.3
2023-04-08T03:04:27.950Z,15.3
2023-04-08T03:05:29.808Z,15.3
2023-04-08T03:06:31.468Z,15.3
2023-04-08T03:07:33.294Z,15.3
2023-04-08T03:08:35.271Z,15.2
2023-04-08T03:09:37.002Z,15.3
2023-04-08T03:10:38.989Z,15.3
2023-04-08T03:11:40.818Z,15.3
2023-04-08T03:12:42.766Z,15.3
2023-04-08T03:13:44.704Z,15.4
2023-04-08T03:14:46.462Z,15.4
2023-04-08T03:15:48.326Z,15
2023-04-08T03:16:50.299Z,15.3
2023-04-08T03:17:52.587Z,15.7
2023-04-08T03:18:54.576Z,15.5
2023-04-08T03:19:56.430Z,15.6
2023-04-08T03:20:58.176Z,15.6
2023-04-08T03:22:00.129Z,15.7
2023-04-08T03:23:01.971Z,15.8
2023-04-08T03:24:03.826Z,15.8
2023-04-08T03:25:05.681Z,15.8
2023-04-08T03:26:07.569Z,15.8
2023-04-08T03:27:09.482Z,15.8
2023-04-08T03:28:11.497Z,15.8
2023-04-08T03:29:13.594Z,15.8
2023-04-08T03:30:15.744Z,15.8
2023-04-08T03:31:17.923Z,15.7
2023-04-08T03:32:19.862Z,15.7
2023-04-08T03:33:21.705Z,15.7
2023-04-08T03:34:23.570Z,15.7
2023-04-08T03:35:25.423Z,15.7
2023-04-08T03:36:27.354Z,15.7
2023-04-08T03:37:29.310Z,15.7
2023-04-08T03:38:31.160Z,15.6
2023-04-08T03:39:33.005Z,15.6
2023-04-08T03:40:34.861Z,15.6
2023-04-08T03:41:36.736Z,15.7
2023-04-08T03:42:38.556Z,15.6
2023-04-08T03:43:40.414Z,15.7
2023-04-08T03:44:42.262Z,15.6
2023-04-08T03:45:44.211Z,15.6
2023-04-08T03:46:46.155Z,15.6
2023-04-08T03:47:48.123Z,15.6
2023-04-08T03:48:50.479Z,15.6
2023-04-08T03:49:52.956Z,15.6
2023-04-08T03:50:54.788Z,15.6
2023-04-08T03:51:56.739Z,15.6
2023-04-08T03:52:58.615Z,15.6
2023-04-08T03:54:00.648Z,15.6
2023-04-08T03:55:02.634Z,15.6
2023-04-08T03:56:04.461Z,15.6
2023-04-08T03:57:06.547Z,15.6
2023-04-08T03:58:08.460Z,15.7
2023-04-08T03:59:10.430Z,15.6
2023-04-08T04:00:12.259Z,15.6
2023-04-08T04:01:14.117Z,15.6
2023-04-08T04:02:16.110Z,15.7
2023-04-08T04:03:18.683Z,15.6
2023-04-08T04:04:21.864Z,15.6
2023-04-08T04:05:24.183Z,15.6
2023-04-08T04:06:26.025Z,15.6
2023-04-08T04:07:27.869Z,15.6
2023-04-08T04:08:29.726Z,15.6
2023-04-08T04:09:31.670Z,15.6
2023-04-08T04:10:33.416Z,15.6
2023-04-08T04:11:35.382Z,15.6
2023-04-08T04:12:37.355Z,15.6
2023-04-08T04:13:39.186Z,15.6
2023-04-08T04:14:41.033Z,15.6
2023-04-08T04:15:42.915Z,15.6
2023-04-08T04:16:44.943Z,15.6
2023-04-08T04:17:46.969Z,15.7
2023-04-08T04:18:49.527Z,15.6
2023-04-08T04:19:52.539Z,15.6
2023-04-08T04:20:54.380Z,15.6
2023-04-08T04:21:56.333Z,15.7
2023-04-08T04:22:58.190Z,15.6
2023-04-08T04:24:00.038Z,15.7
2023-04-08T04:25:02.040Z,15.6
2023-04-08T04:26:03.902Z,15.7
2023-04-08T04:27:05.679Z,15.7
2023-04-08T04:28:07.552Z,15.7
2023-04-08T04:29:09.394Z,15.7
2023-04-08T04:30:11.447Z,15.7
2023-04-08T04:31:13.328Z,15.7
2023-04-08T04:32:15.289Z,15.7
2023-04-08T04:33:17.194Z,15.7
2023-04-08T04:34:19.057Z,15.7
2023-04-08T04:35:21.024Z,15.6
2023-04-08T04:36:23.000Z,15.7
2023-04-08T04:37:24.794Z,15.7
2023-04-08T04:38:26.657Z,15.7
2023-04-08T04:39:28.604Z,15.6
2023-04-08T04:40:30.455Z,15.7
2023-04-08T04:41:32.300Z,15.6
2023-04-08T04:42:34.152Z,15.7
2023-04-08T04:43:36.052Z,15.7
2023-04-08T04:44:37.758Z,15.7
2023-04-08T04:45:39.496Z,15.7
2023-04-08T04:46:41.459Z,15.7
2023-04-08T04:47:43.527Z,15.7
2023-04-08T04:48:45.968Z,15.7
2023-04-08T04:49:47.790Z,15.7
2023-04-08T04:50:49.465Z,15.7
2023-04-08T04:51:51.417Z,15.6
2023-04-08T04:52:53.277Z,15.7
2023-04-08T04:53:55.072Z,15.7
2023-04-08T04:54:57.066Z,15.7
2023-04-08T04:55:58.935Z,15.7
2023-04-08T04:57:00.765Z,15.6
2023-04-08T04:58:02.738Z,15.7
2023-04-08T04:59:04.704Z,15.6
2023-04-08T05:00:06.517Z,15.6
2023-04-08T05:01:08.280Z,15.6
2023-04-08T05:02:10.378Z,15.6
2023-04-08T05:03:12.722Z,15.6
2023-04-08T05:04:15.045Z,15.6
2023-04-08T05:05:17.021Z,15.6
2023-04-08T05:06:18.960Z,15.6
2023-04-08T05:07:20.802Z,15.6
2023-04-08T05:08:22.758Z,15.6
2023-04-08T05:09:24.718Z,15.6
2023-04-08T05:10:26.542Z,15.6
2023-04-08T05:11:28.414Z,15.6
2023-04-08T05:12:30.259Z,15.6
2023-04-08T05:13:32.219Z,15.6
2023-04-08T05:14:34.102Z,15.6
2023-04-08T05:15:35.857Z,15.6
2023-04-08T05:16:37.848Z,15.6
2023-04-08T05:17:40.071Z,15.6
2023-04-08T05:18:42.089Z,15.6
2023-04-08T05:19:43.912Z,15.6
2023-04-08T05:20:45.796Z,15.6
2023-04-08T05:21:47.731Z,15.6
2023-04-08T05:22:49.488Z,15.6
2023-04-08T05:23:51.234Z,15.6
2023-04-08T05:24:53.075Z,15.6
2023-04-08T05:25:54.805Z,15.5
2023-04-08T05:26:56.778Z,15.6
2023-04-08T05:27:58.524Z,15.6
2023-04-08T05:29:00.281Z,15.6
2023-04-08T05:30:02.250Z,15.6
2023-04-08T05:31:04.204Z,15.5
2023-04-08T05:32:06.234Z,15.5
2023-04-08T05:33:08.201Z,15.5
2023-04-08T05:34:10.272Z,15.5
2023-04-08T05:35:12.094Z,15.5
2023-04-08T05:36:14.052Z,15.5
2023-04-08T05:37:16.002Z,15.5
2023-04-08T05:38:17.727Z,15.5
2023-04-08T05:39:19.601Z,15.5
2023-04-08T05:40:21.552Z,15.5
2023-04-08T05:41:23.405Z,15.5
2023-04-08T05:42:25.360Z,15.5
2023-04-08T05:43:27.256Z,15.5
2023-04-08T05:44:29.152Z,15.5
2023-04-08T05:45:31.029Z,15.5
2023-04-08T05:46:32.966Z,15.5
2023-04-08T05:47:34.835Z,15.5
2023-04-08T05:48:36.865Z,15.5
2023-04-08T05:49:38.826Z,15.5
2023-04-08T05:50:40.468Z,15.5
2023-04-08T05:51:42.332Z,15.5
2023-04-08T05:52:44.260Z,15.5
2023-04-08T05:53:46.077Z,15.5
2023-04-08T05:54:47.967Z,15.5
2023-04-08T05:55:49.816Z,15.5
2023-04-08T05:56:51.653Z,15.5
2023-04-08T05:57:53.514Z,15.5
2023-04-08T05:58:55.356Z,15.6
2023-04-08T05:59:57.413Z,15.6
2023-04-08T06:00:59.295Z,15.6
2023-04-08T06:02:01.294Z,15.6
2023-04-08T06:03:04.225Z,15.6
2023-04-08T06:04:07.566Z,15.5
2023-04-08T06:05:10.147Z,15.5
2023-04-08T06:06:12.000Z,15.5
2023-04-08T06:07:13.834Z,15.5
2023-04-08T06:08:15.698Z,15.5
2023-04-08T06:09:17.560Z,15.5
2023-04-08T06:10:19.606Z,15.5
2023-04-08T06:11:21.453Z,15.5
2023-04-08T06:12:23.297Z,15.5
2023-04-08T06:13:25.362Z,15.6
2023-04-08T06:14:27.303Z,15.5
2023-04-08T06:15:29.258Z,15.5
2023-04-08T06:16:31.244Z,15.5
2023-04-08T06:17:33.380Z,15.5
2023-04-08T06:18:35.318Z,15.5
2023-04-08T06:19:37.165Z,15.5
2023-04-08T06:20:39.017Z,15.5
2023-04-08T06:21:40.871Z,15.6
2023-04-08T06:22:42.712Z,15.5
2023-04-08T06:23:44.568Z,15.5
2023-04-08T06:24:46.411Z,15.5
2023-04-08T06:25:48.175Z,15.5
2023-04-08T06:26:50.126Z,15.5
2023-04-08T06:27:51.963Z,15.5
2023-04-08T06:28:53.821Z,15.5
2023-04-08T06:29:55.662Z,15.5
2023-04-08T06:30:57.500Z,15.6
2023-04-08T06:31:59.858Z,15.6
2023-04-08T06:33:02.161Z,15.6
2023-04-08T06:34:04.294Z,15.6
2023-04-08T06:35:06.141Z,15.6
2023-04-08T06:36:08.141Z,15.6
2023-04-08T06:37:10.188Z,15.6
2023-04-08T06:38:11.997Z,15.6
2023-04-08T06:39:13.857Z,15.6
2023-04-08T06:40:16.016Z,15.6
2023-04-08T06:41:17.864Z,15.6
2023-04-08T06:42:21.398Z,15.6
2023-04-08T06:43:24.833Z,15.6
2023-04-08T06:44:26.670Z,15.6
2023-04-08T06:45:28.544Z,15.6
2023-04-08T06:46:30.688Z,15.6
2023-04-08T06:47:32.724Z,15.6
2023-04-08T06:48:34.506Z,15.6
2023-04-08T06:49:36.340Z,15.6
2023-04-08T06:50:38.200Z,15.6
2023-04-08T06:51:40.149Z,15.6
2023-04-08T06:52:41.985Z,15.7
2023-04-08T06:53:43.817Z,15.7
2023-04-08T06:54:45.806Z,15.7
2023-04-08T06:55:47.646Z,15.7
2023-04-08T06:56:49.598Z,15.7
2023-04-08T06:57:51.463Z,15.7
2023-04-08T06:58:53.515Z,15.7
2023-04-08T06:59:55.366Z,15.7
2023-04-08T07:00:57.339Z,15.8
2023-04-08T07:01:59.453Z,15.7
2023-04-08T07:03:02.355Z,15.8
2023-04-08T07:04:04.655Z,15.7
2023-04-08T07:05:06.458Z,15.7
2023-04-08T07:06:08.299Z,15.8
2023-04-08T07:07:10.157Z,15.7
2023-04-08T07:08:11.999Z,15.8
2023-04-08T07:09:13.859Z,15.8
2023-04-08T07:10:15.808Z,15.8
2023-04-08T07:11:18.076Z,15.8
2023-04-08T07:12:19.918Z,15.8
2023-04-08T07:13:21.862Z,15.8
2023-04-08T07:14:23.727Z,15.8
2023-04-08T07:15:25.664Z,15.8
2023-04-08T07:16:27.703Z,15.8
2023-04-08T07:17:29.718Z,15.8
2023-04-08T07:18:31.663Z,15.8
2023-04-08T07:19:33.582Z,15.8
2023-04-08T07:20:35.429Z,15.8
2023-04-08T07:21:37.283Z,15.9
2023-04-08T07:22:39.147Z,15.9
2023-04-08T07:23:40.995Z,15.8
2023-04-08T07:24:42.833Z,15.8
2023-04-08T07:25:44.791Z,15.8
2023-04-08T07:26:46.636Z,15.8
2023-04-08T07:27:48.481Z,15.8
2023-04-08T07:28:51.139Z,15.8
2023-04-08T07:29:53.623Z,15.9
2023-04-08T07:30:55.698Z,15.9
2023-04-08T07:31:57.825Z,15.9
2023-04-08T07:33:01.495Z,15.9
2023-04-08T07:34:03.707Z,15.9
2023-04-08T07:35:05.432Z,15.9
2023-04-08T07:36:07.382Z,15.9
2023-04-08T07:37:09.235Z,15.9
2023-04-08T07:38:11.076Z,15.9
2023-04-08T07:39:13.153Z,15.9
2023-04-08T07:40:14.938Z,15.9
2023-04-08T07:41:16.852Z,15.9
2023-04-08T07:42:18.690Z,15.9
2023-04-08T07:43:20.542Z,15.9
2023-04-08T07:44:22.496Z,15.9
2023-04-08T07:45:24.443Z,15.9
2023-04-08T07:46:26.539Z,15.9
2023-04-08T07:47:28.777Z,15.9
2023-04-08T07:48:30.705Z,15.9
2023-04-08T07:49:32.690Z,15.9
2023-04-08T07:51:10.801Z,15.9
2023-04-08T07:52:13.542Z,15.9
2023-04-08T07:53:15.376Z,15.9
2023-04-08T07:54:17.244Z,15.8
2023-04-08T07:55:19.387Z,15.9
2023-04-08T07:56:21.750Z,15.9
2023-04-08T07:57:23.919Z,15.9
2023-04-08T07:58:26.147Z,15.9
2023-04-08T07:59:28.641Z,15.8
2023-04-08T08:00:30.407Z,15.8
2023-04-08T08:01:32.366Z,15.9
2023-04-08T08:02:34.562Z,15.8
2023-04-08T08:03:37.193Z,15.9
2023-04-08T08:04:40.083Z,15.9
2023-04-08T08:05:42.901Z,15.8
2023-04-08T08:06:44.750Z,15.9
2023-04-08T08:07:46.517Z,15.8
2023-04-08T08:08:48.458Z,15.9
2023-04-08T08:09:50.304Z,15.9
2023-04-08T08:10:52.157Z,15.8
2023-04-08T08:11:54.111Z,15.8
2023-04-08T08:12:55.855Z,15.9
2023-04-08T08:13:57.701Z,15.9
2023-04-08T08:14:59.554Z,15.9
2023-04-08T08:16:01.469Z,15.9
2023-04-08T08:17:03.572Z,15.9
2023-04-08T08:18:05.563Z,15.8
2023-04-08T08:19:07.584Z,15.9
2023-04-08T08:20:09.563Z,15.8
2023-04-08T08:21:11.243Z,15.8
2023-04-08T08:22:12.999Z,15.8
2023-04-08T08:23:14.778Z,15.9
2023-04-08T08:24:16.928Z,15.9
2023-04-08T08:25:18.774Z,15.9
2023-04-08T08:26:20.634Z,15.9
2023-04-08T08:27:22.434Z,15.9
2023-04-08T08:28:24.321Z,15.9
2023-04-08T08:29:26.090Z,15.9
2023-04-08T08:30:28.037Z,15.9
2023-04-08T08:31:29.994Z,15.9
2023-04-08T08:32:32.074Z,15.9
2023-04-08T08:33:34.002Z,15.9
2023-04-08T08:34:35.934Z,15.9
2023-04-08T08:35:38.020Z,15.9
2023-04-08T08:36:40.056Z,15.9
2023-04-08T08:37:41.915Z,15.9
2023-04-08T08:38:43.716Z,15.9
2023-04-08T08:39:45.810Z,16
2023-04-08T08:40:47.661Z,15.9
2023-04-08T08:41:49.460Z,16
2023-04-08T08:42:51.456Z,15.9
2023-04-08T08:43:53.407Z,15.9
2023-04-08T08:44:55.264Z,16
2023-04-08T08:45:57.209Z,16
2023-04-08T08:46:59.189Z,16
2023-04-08T08:48:01.396Z,16
2023-04-08T08:49:03.428Z,16
2023-04-08T08:50:05.432Z,16
2023-04-08T08:51:07.408Z,15.9
2023-04-08T08:52:09.237Z,16
2023-04-08T08:53:11.302Z,16
2023-04-08T08:54:13.346Z,16
2023-04-08T08:55:50.729Z,16
2023-04-08T08:57:14.903Z,16
2023-04-08T08:58:16.744Z,15.9
2023-04-08T08:59:18.600Z,16
2023-04-08T09:00:20.608Z,16
2023-04-08T09:01:22.410Z,16
2023-04-08T09:02:24.615Z,16
2023-04-08T09:03:27.322Z,16
2023-04-08T09:04:30.795Z,16
2023-04-08T09:05:33.457Z,16
2023-04-08T09:06:35.966Z,16
2023-04-08T09:07:37.704Z,16.1
2023-04-08T09:08:39.555Z,16
2023-04-08T09:09:41.302Z,16.1
2023-04-08T09:10:43.259Z,16.1
2023-04-08T09:11:45.104Z,16.1
2023-04-08T09:12:46.927Z,16.1
2023-04-08T09:13:49.221Z,16.1
2023-04-08T09:14:51.772Z,16.1
2023-04-08T09:15:53.852Z,16.1
2023-04-08T09:16:55.673Z,16.2
2023-04-08T09:17:57.568Z,16.2
2023-04-08T09:18:59.583Z,16.2
2023-04-08T09:20:01.459Z,16.2
2023-04-08T09:21:03.389Z,16.2
2023-04-08T09:22:05.375Z,16.2
2023-04-08T09:23:07.039Z,16.2
2023-04-08T09:24:08.864Z,16.2
2023-04-08T09:25:10.689Z,16.2
2023-04-08T09:26:12.454Z,16.2
2023-04-08T09:27:14.291Z,16.2
2023-04-08T09:28:16.133Z,16.2
2023-04-08T09:29:27.853Z,16.2
2023-04-08T09:30:37.142Z,16.2
2023-04-08T09:31:39.023Z,16.2
2023-04-08T09:32:40.993Z,16.1
2023-04-08T09:33:42.901Z,16.2
2023-04-08T09:34:44.757Z,16.2
2023-04-08T09:35:46.643Z,16.2
2023-04-08T09:36:48.562Z,16.2
2023-04-08T09:37:50.416Z,16.1
2023-04-08T09:38:52.359Z,16.2
2023-04-08T09:39:54.200Z,16.2
2023-04-08T09:40:55.952Z,16.2
2023-04-08T09:41:57.917Z,16.2
2023-04-08T09:42:59.650Z,16.2
2023-04-08T09:44:01.494Z,16.3
2023-04-08T09:45:03.354Z,16.2
2023-04-08T09:46:05.406Z,16.2
2023-04-08T09:47:07.465Z,16.2
2023-04-08T09:48:09.320Z,16.2
2023-04-08T09:49:11.167Z,16.2
2023-04-08T09:50:13.007Z,16.2
2023-04-08T09:51:14.865Z,16.2
2023-04-08T09:52:16.719Z,16.1
2023-04-08T09:53:18.594Z,16.1
2023-04-08T09:54:20.831Z,16.2
2023-04-08T09:55:22.694Z,16.1
2023-04-08T09:56:24.522Z,16.2
2023-04-08T09:57:26.468Z,16.1
2023-04-08T09:58:28.323Z,16.2
2023-04-08T09:59:30.176Z,16.1
2023-04-08T10:00:32.016Z,16.1
2023-04-08T10:01:34.102Z,16.1
2023-04-08T10:02:36.755Z,16.1
2023-04-08T10:03:39.422Z,16.1
2023-04-08T10:04:41.884Z,16.1
2023-04-08T10:05:43.846Z,16
2023-04-08T10:06:45.667Z,16.2
2023-04-08T10:07:47.532Z,16.1
2023-04-08T10:08:49.517Z,16.1
2023-04-08T10:09:51.332Z,16.1
2023-04-08T10:10:53.181Z,16.1
2023-04-08T10:11:55.042Z,16.1
2023-04-08T10:12:56.891Z,16.1
2023-04-08T10:13:58.738Z,16.1
2023-04-08T10:15:00.464Z,16.2
2023-04-08T10:16:02.361Z,16.1
2023-04-08T10:17:04.347Z,16.1
2023-04-08T10:18:06.601Z,16.1
2023-04-08T10:19:08.707Z,16.2
2023-04-08T10:20:10.556Z,16.2
2023-04-08T10:21:12.503Z,16.1
2023-04-08T10:22:14.263Z,16.2
2023-04-08T10:23:16.106Z,16.2
2023-04-08T10:24:17.986Z,16.2
2023-04-08T10:25:19.936Z,16.2
2023-04-08T10:26:21.749Z,16.3
2023-04-08T10:27:23.501Z,16.1
2023-04-08T10:28:25.356Z,16.2
2023-04-08T10:29:27.303Z,16.2
2023-04-08T10:30:29.156Z,16.3
2023-04-08T10:31:30.984Z,16.2
2023-04-08T10:32:32.979Z,16.1
2023-04-08T10:33:38.596Z,16.3
2023-04-08T10:34:42.702Z,16.2
2023-04-08T10:35:44.687Z,16.2
2023-04-08T10:36:46.547Z,16.3
2023-04-08T10:37:48.352Z,16.2
2023-04-08T10:38:50.312Z,16.2
2023-04-08T10:39:52.294Z,16.3
2023-04-08T10:40:54.116Z,16.2
2023-04-08T10:41:56.058Z,16.3
2023-04-08T10:42:58.009Z,16.2
2023-04-08T10:43:59.866Z,16.2
2023-04-08T10:45:01.750Z,16.2
2023-04-08T10:46:03.685Z,16.2
2023-04-08T10:47:05.614Z,16.3
2023-04-08T10:48:07.449Z,16.2
2023-04-08T10:49:09.323Z,16.2
2023-04-08T10:50:11.164Z,16.2
2023-04-08T10:51:13.000Z,16.2
2023-04-08T10:52:14.969Z,16.2
2023-04-08T10:53:16.819Z,16.2
2023-04-08T10:54:18.635Z,16.2
2023-04-08T10:55:20.648Z,16.2
2023-04-08T10:56:22.504Z,16.2
2023-04-08T10:57:24.433Z,16.2
2023-04-08T10:58:26.280Z,16.2
2023-04-08T10:59:28.126Z,16.2
2023-04-08T11:00:29.968Z,16.2
2023-04-08T11:01:32.120Z,16.2
2023-04-08T11:02:34.477Z,16.2
2023-04-08T11:03:37.764Z,16.2
2023-04-08T11:04:40.269Z,16.2
2023-04-08T11:05:42.425Z,16.2
2023-04-08T11:06:44.351Z,16.2
2023-04-08T11:07:46.198Z,16.1
2023-04-08T11:08:47.886Z,16.2
2023-04-08T11:09:49.773Z,16.2
2023-04-08T11:10:51.575Z,16.2
2023-04-08T11:11:53.502Z,16.2
2023-04-08T11:12:55.449Z,16.2
2023-04-08T11:13:57.832Z,16.2
2023-04-08T11:15:00.788Z,16.2
2023-04-08T11:16:02.987Z,16.2
2023-04-08T11:17:05.007Z,16.1
2023-04-08T11:18:07.064Z,15.9
2023-04-08T11:19:09.314Z,16
2023-04-08T11:20:11.061Z,16.2
2023-04-08T11:21:13.015Z,16.3
2023-04-08T11:22:14.968Z,16.5
2023-04-08T11:23:16.916Z,16.5
2023-04-08T11:24:18.776Z,16.6
2023-04-08T11:25:20.620Z,16.7
2023-04-08T11:26:22.811Z,16.7
2023-04-08T11:27:24.838Z,16.7
2023-04-08T11:28:26.682Z,16.7
2023-04-08T11:29:28.542Z,16.7
2023-04-08T11:30:30.386Z,16.6
2023-04-08T11:31:32.394Z,16.6
2023-04-08T11:32:34.659Z,16.6
2023-04-08T11:33:36.768Z,16.5
2023-04-08T11:34:38.607Z,16.5
2023-04-08T11:35:40.596Z,16.5
2023-04-08T11:36:42.813Z,16.5
2023-04-08T11:37:44.686Z,16.5
2023-04-08T11:38:46.530Z,16.4
2023-04-08T11:39:48.385Z,16.4
2023-04-08T11:40:50.325Z,16.5
2023-04-08T11:41:52.292Z,16.4
2023-04-08T11:42:54.230Z,16.5
2023-04-08T11:43:56.389Z,16.5
2023-04-08T11:44:58.439Z,16.4
2023-04-08T11:46:00.832Z,16.5
2023-04-08T11:47:03.018Z,16.4
2023-04-08T11:48:05.319Z,16.5
2023-04-08T11:49:07.268Z,16.4
2023-04-08T11:50:09.234Z,16.4
2023-04-08T11:51:11.064Z,16.4
2023-04-08T11:52:13.022Z,16.4
2023-04-08T11:53:14.872Z,16.4
2023-04-08T11:54:16.725Z,16.4
2023-04-08T11:55:18.582Z,16.4
2023-04-08T11:56:20.418Z,16.4
2023-04-08T11:57:22.413Z,16.4
2023-04-08T11:58:24.223Z,16.4
2023-04-08T11:59:29.462Z,16.4
2023-04-08T12:00:31.709Z,16.4
2023-04-08T12:01:33.615Z,16.4
2023-04-08T12:02:35.840Z,16.4
2023-04-08T12:03:38.364Z,16.4
2023-04-08T12:04:40.881Z,16.4
2023-04-08T12:05:43.136Z,16.4
2023-04-08T12:06:44.974Z,16.4
2023-04-08T12:07:46.802Z,16.5
2023-04-08T12:08:48.768Z,16.5
2023-04-08T12:09:51.145Z,16.4
2023-04-08T12:10:52.880Z,16.5
2023-04-08T12:11:54.739Z,16.5
2023-04-08T12:12:56.821Z,16.5
2023-04-08T12:13:58.636Z,16.4
2023-04-08T12:15:00.586Z,16.5
2023-04-08T12:16:02.560Z,16.5
2023-04-08T12:17:04.585Z,16.5
2023-04-08T12:18:06.513Z,16.5
2023-04-08T12:19:08.491Z,16.5
2023-04-08T12:20:10.349Z,16.5
2023-04-08T12:21:12.214Z,16.5
2023-04-08T12:22:14.071Z,16.5
2023-04-08T12:23:15.894Z,16.5
2023-04-08T12:24:17.849Z,16.5
2023-04-08T12:25:19.708Z,16.5
2023-04-08T12:26:21.551Z,16.5
2023-04-08T12:27:23.507Z,16.5
2023-04-08T12:28:25.476Z,16.5
2023-04-08T12:29:27.308Z,16.4
2023-04-08T12:30:29.253Z,16.5
2023-04-08T12:31:31.321Z,16.5
2023-04-08T12:32:33.562Z,16.5
2023-04-08T12:33:35.529Z,16.4
2023-04-08T12:34:37.388Z,16.4
2023-04-08T12:35:39.385Z,16.4
2023-04-08T12:36:42.209Z,16.4
2023-04-08T12:37:44.059Z,16.4
2023-04-08T12:38:45.800Z,16.4
2023-04-08T12:39:47.664Z,16.4
2023-04-08T12:40:50.520Z,16.4
2023-04-08T12:41:52.474Z,16.4
2023-04-08T12:42:54.332Z,16.5
2023-04-08T12:43:56.202Z,16.5
2023-04-08T12:44:58.025Z,16.5
2023-04-08T12:45:59.979Z,16.5
2023-04-08T12:47:01.963Z,16.5
2023-04-08T12:48:04.208Z,16.5
2023-04-08T12:49:07.018Z,16.5
2023-04-08T12:50:10.093Z,16.5
2023-04-08T12:51:12.322Z,16.5
2023-04-08T12:52:14.155Z,16.5
2023-04-08T12:53:16.001Z,16.5
2023-04-08T12:54:17.748Z,16.6
2023-04-08T12:55:19.596Z,16.5
2023-04-08T12:56:21.558Z,16.6
2023-04-08T12:57:23.364Z,16.5
2023-04-08T12:58:25.099Z,16.5
2023-04-08T12:59:26.928Z,16.5
2023-04-08T13:00:28.744Z,16.5
2023-04-08T13:01:31.289Z,16.5
2023-04-08T13:02:33.728Z,16.6
2023-04-08T13:03:35.998Z,16.6
2023-04-08T13:04:38.311Z,16.6
2023-04-08T13:05:44.109Z,16.5
2023-04-08T13:06:46.183Z,16.5
2023-04-08T13:07:48.049Z,16.5
2023-04-08T13:08:50.492Z,16.6
2023-04-08T13:09:53.181Z,16.5
2023-04-08T13:10:55.038Z,16.5
2023-04-08T13:11:56.996Z,16.5
2023-04-08T13:12:58.848Z,16.5
2023-04-08T13:14:00.790Z,16.6
2023-04-08T13:15:02.677Z,16.5
2023-04-08T13:16:04.506Z,16.5
2023-04-08T13:17:06.449Z,16.5
2023-04-08T13:18:08.560Z,16.5
2023-04-08T13:19:10.727Z,16.5
2023-04-08T13:20:12.617Z,16.5
2023-04-08T13:21:14.562Z,16.5
2023-04-08T13:22:16.308Z,16.5
2023-04-08T13:23:18.269Z,16.5
2023-04-08T13:24:20.105Z,16.5
2023-04-08T13:25:21.860Z,16.5
2023-04-08T13:26:23.815Z,16.4
2023-04-08T13:27:25.659Z,16.4
2023-04-08T13:28:27.508Z,16.4
2023-04-08T13:29:29.365Z,16.5
2023-04-08T13:30:31.238Z,16.5
2023-04-08T13:31:33.173Z,16.5
2023-04-08T13:32:35.375Z,16.5
2023-04-08T13:33:37.266Z,16.5
2023-04-08T13:34:39.233Z,16.5
2023-04-08T13:35:41.196Z,16.5
2023-04-08T13:36:43.339Z,16.5
2023-04-08T13:37:45.193Z,16.5
2023-04-08T13:38:47.038Z,16.5
2023-04-08T13:39:48.983Z,16.5
2023-04-08T13:40:50.836Z,16.5
2023-04-08T13:41:52.690Z,16.5
2023-04-08T13:42:54.734Z,16.5
2023-04-08T13:43:56.608Z,16.5
2023-04-08T13:44:58.545Z,16.5
2023-04-08T13:46:00.651Z,16.5
2023-04-08T13:47:02.644Z,16.5
2023-04-08T13:48:04.625Z,16.5
2023-04-08T13:49:06.564Z,16.5